sensor_id;sensor_type;location;lat;lon;timestamp;temperature;humidity
10583;DHT22;33679;51.218;6.786;2022-10-17T00:01:26;19.60;99.90
10583;DHT22;33679;51.218;6.786;2022-10-17T00:03:56;19.60;99.90
10583;DHT22;33679;51.218;6.786;2022-10-17T00:06:23;19.50;99.90
10583;DHT22;33679;51.218;6.786;2022-10-17T00:08:50;19.40;99.90
10583;DHT22;33679;51.218;6.786;2022-10-17T00:11:22;19.40;99.90
10583;DHT22;33679;51.218;6.786;2022-10-17T00:13:54;19.40;99.90
10583;DHT22;33679;51.218;6.786;2022-10-17T00:16:29;19.40;99.90
10583;DHT22;33679;51.218;6.786;2022-10-17T00:18:57;19.40;99.90
10583;DHT22;33679;51.218;6.786;2022-10-17T00:21:25;19.40;99.90
10583;DHT22;33679;51.218;6.786;2022-10-17T00:23:53;19.40;99.90
10583;DHT22;33679;51.218;6.786;2022-10-17T00:26:22;19.30;99.90
10583;DHT22;33679;51.218;6.786;2022-10-17T00:28:51;19.40;99.90
10583;DHT22;33679;51.218;6.786;2022-10-17T00:31:19;19.30;99.90
10583;DHT22;33679;51.218;6.786;2022-10-17T00:33:48;19.30;99.90
10583;DHT22;33679;51.218;6.786;2022-10-17T00:36:19;19.30;99.90
10583;DHT22;33679;51.218;6.786;2022-10-17T00:38:49;19.30;99.90
10583;DHT22;33679;51.218;6.786;2022-10-17T00:41:30;19.30;99.90
10583;DHT22;33679;51.218;6.786;2022-10-17T00:44:00;19.30;99.90
10583;DHT22;33679;51.218;6.786;2022-10-17T00:46:30;19.30;99.90
10583;DHT22;33679;51.218;6.786;2022-10-17T00:49:00;19.30;99.90
10583;DHT22;33679;51.218;6.786;2022-10-17T00:51:33;19.30;99.90
10583;DHT22;33679;51.218;6.786;2022-10-17T00:54:02;19.20;99.90
10583;DHT22;33679;51.218;6.786;2022-10-17T00:56:31;19.30;99.90
10583;DHT22;33679;51.218;6.786;2022-10-17T00:58:59;19.30;99.90
10583;DHT22;33679;51.218;6.786;2022-10-17T01:01:26;19.30;99.90
10583;DHT22;33679;51.218;6.786;2022-10-17T01:03:53;19.30;99.90
10583;DHT22;33679;51.218;6.786;2022-10-17T01:06:21;19.30;99.90
10583;DHT22;33679;51.218;6.786;2022-10-17T01:08:48;19.30;99.90
10583;DHT22;33679;51.218;6.786;2022-10-17T01:11:27;19.30;99.90
10583;DHT22;33679;51.218;6.786;2022-10-17T01:14:05;19.30;99.90
10583;DHT22;33679;51.218;6.786;2022-10-17T01:16:40;19.30;99.90
10583;DHT22;33679;51.218;6.786;2022-10-17T01:19:37;19.30;99.90
10583;DHT22;33679;51.218;6.786;2022-10-17T01:22:08;19.30;99.90
10583;DHT22;33679;51.218;6.786;2022-10-17T01:24:50;19.20;99.90
10583;DHT22;33679;51.218;6.786;2022-10-17T01:27:55;19.20;99.90
10583;DHT22;33679;51.218;6.786;2022-10-17T01:30:54;19.20;99.90
10583;DHT22;33679;51.218;6.786;2022-10-17T01:33:31;19.20;99.90
10583;DHT22;33679;51.218;6.786;2022-10-17T01:36:09;19.20;99.90
10583;DHT22;33679;51.218;6.786;2022-10-17T01:38:44;19.20;99.90
10583;DHT22;33679;51.218;6.786;2022-10-17T01:41:19;19.30;99.90
10583;DHT22;33679;51.218;6.786;2022-10-17T01:43:52;19.20;99.90
10583;DHT22;33679;51.218;6.786;2022-10-17T01:46:29;19.20;99.90
10583;DHT22;33679;51.218;6.786;2022-10-17T01:48:59;19.20;99.90
10583;DHT22;33679;51.218;6.786;2022-10-17T01:51:29;19.20;99.90
10583;DHT22;33679;51.218;6.786;2022-10-17T01:54:01;19.20;99.90
10583;DHT22;33679;51.218;6.786;2022-10-17T01:56:30;19.20;99.90
10583;DHT22;33679;51.218;6.786;2022-10-17T01:59:02;19.20;99.90
10583;DHT22;33679;51.218;6.786;2022-10-17T02:01:34;19.20;99.90
10583;DHT22;33679;51.218;6.786;2022-10-17T02:04:03;19.20;99.90
10583;DHT22;33679;51.218;6.786;2022-10-17T02:06:34;19.20;99.90
10583;DHT22;33679;51.218;6.786;2022-10-17T02:09:16;19.20;99.90
10583;DHT22;33679;51.218;6.786;2022-10-17T02:11:54;19.20;99.90
10583;DHT22;33679;51.218;6.786;2022-10-17T02:14:31;19.20;99.90
10583;DHT22;33679;51.218;6.786;2022-10-17T02:17:12;19.20;99.90
10583;DHT22;33679;51.218;6.786;2022-10-17T02:19:58;19.20;99.90
10583;DHT22;33679;51.218;6.786;2022-10-17T02:22:36;19.20;99.90
10583;DHT22;33679;51.218;6.786;2022-10-17T02:25:13;19.10;99.90
10583;DHT22;33679;51.218;6.786;2022-10-17T02:27:49;19.10;99.90
10583;DHT22;33679;51.218;6.786;2022-10-17T02:30:25;19.10;99.90
10583;DHT22;33679;51.218;6.786;2022-10-17T02:32:58;19.20;99.90
10583;DHT22;33679;51.218;6.786;2022-10-17T02:35:30;19.20;99.90
10583;DHT22;33679;51.218;6.786;2022-10-17T02:37:59;19.20;99.90
10583;DHT22;33679;51.218;6.786;2022-10-17T02:40:30;19.20;99.90
10583;DHT22;33679;51.218;6.786;2022-10-17T02:42:58;19.20;99.90
10583;DHT22;33679;51.218;6.786;2022-10-17T02:45:28;19.20;99.90
10583;DHT22;33679;51.218;6.786;2022-10-17T02:48:04;19.10;99.90
10583;DHT22;33679;51.218;6.786;2022-10-17T02:50:41;19.20;99.90
10583;DHT22;33679;51.218;6.786;2022-10-17T02:53:13;19.20;99.90
10583;DHT22;33679;51.218;6.786;2022-10-17T02:55:47;19.20;99.90
10583;DHT22;33679;51.218;6.786;2022-10-17T02:58:24;19.10;99.90
10583;DHT22;33679;51.218;6.786;2022-10-17T03:00:54;19.20;99.90
10583;DHT22;33679;51.218;6.786;2022-10-17T03:03:24;19.20;99.90
10583;DHT22;33679;51.218;6.786;2022-10-17T03:05:52;19.20;99.90
10583;DHT22;33679;51.218;6.786;2022-10-17T03:08:24;19.20;99.90
10583;DHT22;33679;51.218;6.786;2022-10-17T03:10:52;19.20;99.90
10583;DHT22;33679;51.218;6.786;2022-10-17T03:13:21;19.20;99.90
10583;DHT22;33679;51.218;6.786;2022-10-17T03:15:51;19.10;99.90
10583;DHT22;33679;51.218;6.786;2022-10-17T03:18:19;19.10;99.90
10583;DHT22;33679;51.218;6.786;2022-10-17T03:20:51;19.10;99.90
10583;DHT22;33679;51.218;6.786;2022-10-17T03:23:19;19.10;99.90
10583;DHT22;33679;51.218;6.786;2022-10-17T03:25:48;19.10;99.90
10583;DHT22;33679;51.218;6.786;2022-10-17T03:28:16;19.10;99.90
10583;DHT22;33679;51.218;6.786;2022-10-17T03:30:43;19.10;99.90
10583;DHT22;33679;51.218;6.786;2022-10-17T03:33:13;19.10;99.90
10583;DHT22;33679;51.218;6.786;2022-10-17T03:35:40;19.10;99.90
10583;DHT22;33679;51.218;6.786;2022-10-17T03:38:09;19.10;99.90
10583;DHT22;33679;51.218;6.786;2022-10-17T03:40:37;19.10;99.90
10583;DHT22;33679;51.218;6.786;2022-10-17T03:43:05;19.10;99.90
10583;DHT22;33679;51.218;6.786;2022-10-17T03:45:33;19.10;99.90
10583;DHT22;33679;51.218;6.786;2022-10-17T03:48:00;19.10;99.90
10583;DHT22;33679;51.218;6.786;2022-10-17T03:50:28;19.10;99.90
10583;DHT22;33679;51.218;6.786;2022-10-17T03:52:57;19.10;99.90
10583;DHT22;33679;51.218;6.786;2022-10-17T03:55:26;19.10;99.90
10583;DHT22;33679;51.218;6.786;2022-10-17T03:57:53;19.20;99.90
10583;DHT22;33679;51.218;6.786;2022-10-17T04:00:22;19.20;99.90
10583;DHT22;33679;51.218;6.786;2022-10-17T04:02:55;19.20;99.90
10583;DHT22;33679;51.218;6.786;2022-10-17T04:05:26;19.20;99.90
10583;DHT22;33679;51.218;6.786;2022-10-17T04:07:56;19.30;99.90
10583;DHT22;33679;51.218;6.786;2022-10-17T04:10:47;19.30;99.90
10583;DHT22;33679;51.218;6.786;2022-10-17T04:13:14;19.20;99.90
10583;DHT22;33679;51.218;6.786;2022-10-17T04:15:55;19.20;99.90
10583;DHT22;33679;51.218;6.786;2022-10-17T04:18:23;19.20;99.90
10583;DHT22;33679;51.218;6.786;2022-10-17T04:20:51;19.20;99.90
10583;DHT22;33679;51.218;6.786;2022-10-17T04:23:20;19.20;99.90
10583;DHT22;33679;51.218;6.786;2022-10-17T04:25:54;19.20;99.90
10583;DHT22;33679;51.218;6.786;2022-10-17T04:28:22;19.20;99.90
10583;DHT22;33679;51.218;6.786;2022-10-17T04:30:55;19.20;99.90
10583;DHT22;33679;51.218;6.786;2022-10-17T04:33:23;19.30;99.90
10583;DHT22;33679;51.218;6.786;2022-10-17T04:35:57;19.20;99.90
10583;DHT22;33679;51.218;6.786;2022-10-17T04:38:25;19.30;99.90
10583;DHT22;33679;51.218;6.786;2022-10-17T04:40:55;19.20;99.90
10583;DHT22;33679;51.218;6.786;2022-10-17T04:43:23;19.30;99.90
10583;DHT22;33679;51.218;6.786;2022-10-17T04:45:53;19.20;99.90
10583;DHT22;33679;51.218;6.786;2022-10-17T04:48:21;19.20;99.90
10583;DHT22;33679;51.218;6.786;2022-10-17T04:51:05;19.20;99.90
10583;DHT22;33679;51.218;6.786;2022-10-17T04:53:42;19.20;99.90
10583;DHT22;33679;51.218;6.786;2022-10-17T04:56:19;19.30;99.90
10583;DHT22;33679;51.218;6.786;2022-10-17T04:58:47;19.30;99.90
10583;DHT22;33679;51.218;6.786;2022-10-17T05:01:18;19.30;99.90
10583;DHT22;33679;51.218;6.786;2022-10-17T05:03:51;19.30;99.90
10583;DHT22;33679;51.218;6.786;2022-10-17T05:06:21;19.30;99.90
10583;DHT22;33679;51.218;6.786;2022-10-17T05:09:07;19.40;99.90
10583;DHT22;33679;51.218;6.786;2022-10-17T05:11:36;19.50;99.90
10583;DHT22;33679;51.218;6.786;2022-10-17T05:14:04;19.40;99.90
10583;DHT22;33679;51.218;6.786;2022-10-17T05:16:32;19.40;99.90
10583;DHT22;33679;51.218;6.786;2022-10-17T05:19:02;19.40;99.90
10583;DHT22;33679;51.218;6.786;2022-10-17T05:21:35;19.40;99.90
10583;DHT22;33679;51.218;6.786;2022-10-17T05:24:04;19.40;99.90
10583;DHT22;33679;51.218;6.786;2022-10-17T05:26:32;19.40;99.90
10583;DHT22;33679;51.218;6.786;2022-10-17T05:29:01;19.40;99.90
10583;DHT22;33679;51.218;6.786;2022-10-17T05:31:32;19.40;99.90
10583;DHT22;33679;51.218;6.786;2022-10-17T05:34:03;19.40;99.90
10583;DHT22;33679;51.218;6.786;2022-10-17T05:36:32;19.40;99.90
10583;DHT22;33679;51.218;6.786;2022-10-17T05:39:03;19.40;99.90
10583;DHT22;33679;51.218;6.786;2022-10-17T05:41:32;19.50;99.90
10583;DHT22;33679;51.218;6.786;2022-10-17T05:44:01;19.40;99.90
10583;DHT22;33679;51.218;6.786;2022-10-17T05:46:38;19.40;99.90
10583;DHT22;33679;51.218;6.786;2022-10-17T05:49:07;19.40;99.90
10583;DHT22;33679;51.218;6.786;2022-10-17T05:51:35;19.40;99.90
10583;DHT22;33679;51.218;6.786;2022-10-17T05:54:06;19.40;99.90
10583;DHT22;33679;51.218;6.786;2022-10-17T05:56:35;19.40;99.90
10583;DHT22;33679;51.218;6.786;2022-10-17T05:59:04;19.50;99.90
10583;DHT22;33679;51.218;6.786;2022-10-17T06:01:50;19.50;99.90
10583;DHT22;33679;51.218;6.786;2022-10-17T06:04:20;19.50;99.90
10583;DHT22;33679;51.218;6.786;2022-10-17T06:06:47;19.50;99.90
10583;DHT22;33679;51.218;6.786;2022-10-17T06:09:16;19.50;99.90
10583;DHT22;33679;51.218;6.786;2022-10-17T06:11:47;19.50;99.90
10583;DHT22;33679;51.218;6.786;2022-10-17T06:14:16;19.50;99.90
10583;DHT22;33679;51.218;6.786;2022-10-17T06:16:44;19.60;99.90
10583;DHT22;33679;51.218;6.786;2022-10-17T06:19:11;19.60;99.90
10583;DHT22;33679;51.218;6.786;2022-10-17T06:21:39;19.50;99.90
10583;DHT22;33679;51.218;6.786;2022-10-17T06:24:19;19.50;99.90
10583;DHT22;33679;51.218;6.786;2022-10-17T06:26:47;19.60;99.90
10583;DHT22;33679;51.218;6.786;2022-10-17T06:29:19;19.50;99.90
10583;DHT22;33679;51.218;6.786;2022-10-17T06:31:49;19.50;99.90
10583;DHT22;33679;51.218;6.786;2022-10-17T06:34:18;19.50;99.90
10583;DHT22;33679;51.218;6.786;2022-10-17T06:36:47;19.50;99.90
10583;DHT22;33679;51.218;6.786;2022-10-17T06:39:17;19.50;99.90
10583;DHT22;33679;51.218;6.786;2022-10-17T06:41:55;19.50;99.90
10583;DHT22;33679;51.218;6.786;2022-10-17T06:44:38;19.60;99.90
10583;DHT22;33679;51.218;6.786;2022-10-17T06:47:26;19.60;99.90
10583;DHT22;33679;51.218;6.786;2022-10-17T06:49:57;19.50;99.90
10583;DHT22;33679;51.218;6.786;2022-10-17T06:52:30;19.60;99.90
10583;DHT22;33679;51.218;6.786;2022-10-17T06:55:20;19.60;99.90
10583;DHT22;33679;51.218;6.786;2022-10-17T06:58:09;19.60;99.90
10583;DHT22;33679;51.218;6.786;2022-10-17T07:00:59;19.60;99.90
10583;DHT22;33679;51.218;6.786;2022-10-17T07:03:26;19.70;99.90
10583;DHT22;33679;51.218;6.786;2022-10-17T07:05:55;19.70;99.90
10583;DHT22;33679;51.218;6.786;2022-10-17T10:06:01;23.60;99.90
10583;DHT22;33679;51.218;6.786;2022-10-17T10:08:30;23.70;99.90
10583;DHT22;33679;51.218;6.786;2022-10-17T10:11:00;23.60;99.90
10583;DHT22;33679;51.218;6.786;2022-10-17T10:13:30;23.40;99.90
10583;DHT22;33679;51.218;6.786;2022-10-17T10:16:17;23.20;99.90
10583;DHT22;33679;51.218;6.786;2022-10-17T10:18:51;23.00;99.90
10583;DHT22;33679;51.218;6.786;2022-10-17T10:21:24;22.90;99.90
10583;DHT22;33679;51.218;6.786;2022-10-17T10:24:11;22.80;99.90
10583;DHT22;33679;51.218;6.786;2022-10-17T10:26:41;22.70;99.90
10583;DHT22;33679;51.218;6.786;2022-10-17T10:29:22;22.60;99.90
10583;DHT22;33679;51.218;6.786;2022-10-17T10:31:50;22.60;99.90
10583;DHT22;33679;51.218;6.786;2022-10-17T10:34:22;22.50;99.90
10583;DHT22;33679;51.218;6.786;2022-10-17T10:37:01;22.50;99.90
10583;DHT22;33679;51.218;6.786;2022-10-17T10:39:46;22.50;99.90
10583;DHT22;33679;51.218;6.786;2022-10-17T10:42:24;22.50;99.90
10583;DHT22;33679;51.218;6.786;2022-10-17T10:44:54;22.50;99.90
10583;DHT22;33679;51.218;6.786;2022-10-17T10:47:25;22.50;99.90
10583;DHT22;33679;51.218;6.786;2022-10-17T10:50:08;22.60;99.90
10583;DHT22;33679;51.218;6.786;2022-10-17T10:52:46;22.60;99.90
10583;DHT22;33679;51.218;6.786;2022-10-17T10:55:23;22.60;99.90
10583;DHT22;33679;51.218;6.786;2022-10-17T10:57:57;22.60;99.90
10583;DHT22;33679;51.218;6.786;2022-10-17T11:00:27;22.60;99.90
10583;DHT22;33679;51.218;6.786;2022-10-17T11:03:05;22.60;99.90
10583;DHT22;33679;51.218;6.786;2022-10-17T11:05:40;22.70;99.90
10583;DHT22;33679;51.218;6.786;2022-10-17T11:08:17;22.60;99.90
10583;DHT22;33679;51.218;6.786;2022-10-17T11:10:59;22.60;99.90
10583;DHT22;33679;51.218;6.786;2022-10-17T11:13:38;22.60;99.90
10583;DHT22;33679;51.218;6.786;2022-10-17T11:16:17;22.60;99.90
10583;DHT22;33679;51.218;6.786;2022-10-17T11:18:49;22.60;99.90
10583;DHT22;33679;51.218;6.786;2022-10-17T11:21:20;22.60;99.90
10583;DHT22;33679;51.218;6.786;2022-10-17T11:23:59;22.60;99.90
10583;DHT22;33679;51.218;6.786;2022-10-17T11:26:32;22.60;99.90
10583;DHT22;33679;51.218;6.786;2022-10-17T11:29:02;22.60;99.90
10583;DHT22;33679;51.218;6.786;2022-10-17T11:31:36;22.60;99.90
10583;DHT22;33679;51.218;6.786;2022-10-17T11:34:11;22.60;99.90
10583;DHT22;33679;51.218;6.786;2022-10-17T11:36:49;22.60;99.90
10583;DHT22;33679;51.218;6.786;2022-10-17T11:39:22;22.70;99.90
10583;DHT22;33679;51.218;6.786;2022-10-17T11:41:57;22.70;99.90
10583;DHT22;33679;51.218;6.786;2022-10-17T11:44:30;22.70;99.90
10583;DHT22;33679;51.218;6.786;2022-10-17T11:47:03;22.70;99.90
10583;DHT22;33679;51.218;6.786;2022-10-17T11:49:34;22.80;99.90
10583;DHT22;33679;51.218;6.786;2022-10-17T11:52:12;22.80;99.90
10583;DHT22;33679;51.218;6.786;2022-10-17T11:54:50;22.90;99.90
10583;DHT22;33679;51.218;6.786;2022-10-17T11:57:41;22.90;99.90
10583;DHT22;33679;51.218;6.786;2022-10-17T12:00:38;23.00;99.90
10583;DHT22;33679;51.218;6.786;2022-10-17T12:03:25;23.00;99.90
10583;DHT22;33679;51.218;6.786;2022-10-17T12:05:59;23.00;99.90
10583;DHT22;33679;51.218;6.786;2022-10-17T12:08:33;23.00;99.90
10583;DHT22;33679;51.218;6.786;2022-10-17T12:11:15;23.00;99.90
10583;DHT22;33679;51.218;6.786;2022-10-17T12:13:51;23.10;99.90
10583;DHT22;33679;51.218;6.786;2022-10-17T12:16:44;23.00;99.90
10583;DHT22;33679;51.218;6.786;2022-10-17T12:19:32;23.10;99.90
10583;DHT22;33679;51.218;6.786;2022-10-17T12:22:16;23.00;99.90
10583;DHT22;33679;51.218;6.786;2022-10-17T12:24:52;23.00;99.90
10583;DHT22;33679;51.218;6.786;2022-10-17T12:27:23;23.00;99.90
10583;DHT22;33679;51.218;6.786;2022-10-17T12:29:58;23.00;99.90
10583;DHT22;33679;51.218;6.786;2022-10-17T12:32:28;23.00;99.90
10583;DHT22;33679;51.218;6.786;2022-10-17T12:34:56;23.00;99.90
10583;DHT22;33679;51.218;6.786;2022-10-17T12:38:00;23.00;99.90
10583;DHT22;33679;51.218;6.786;2022-10-17T12:40:59;23.00;99.90
10583;DHT22;33679;51.218;6.786;2022-10-17T12:43:57;23.00;99.90
10583;DHT22;33679;51.218;6.786;2022-10-17T12:46:45;23.00;99.90
10583;DHT22;33679;51.218;6.786;2022-10-17T12:49:37;22.90;99.90
10583;DHT22;33679;51.218;6.786;2022-10-17T12:52:21;22.90;99.90
10583;DHT22;33679;51.218;6.786;2022-10-17T12:55:00;22.80;99.90
10583;DHT22;33679;51.218;6.786;2022-10-17T12:57:38;22.80;99.90
10583;DHT22;33679;51.218;6.786;2022-10-17T13:00:16;22.80;99.90
10583;DHT22;33679;51.218;6.786;2022-10-17T13:02:44;22.70;99.90
10583;DHT22;33679;51.218;6.786;2022-10-17T13:05:16;22.70;99.90
10583;DHT22;33679;51.218;6.786;2022-10-17T13:07:48;22.70;99.90
10583;DHT22;33679;51.218;6.786;2022-10-17T13:10:19;22.70;99.90
10583;DHT22;33679;51.218;6.786;2022-10-17T13:12:48;22.70;99.90
10583;DHT22;33679;51.218;6.786;2022-10-17T13:15:20;22.70;99.90
10583;DHT22;33679;51.218;6.786;2022-10-17T13:17:58;22.70;99.90
10583;DHT22;33679;51.218;6.786;2022-10-17T13:20:28;22.70;99.90
10583;DHT22;33679;51.218;6.786;2022-10-17T13:22:58;22.70;99.90
10583;DHT22;33679;51.218;6.786;2022-10-17T13:25:26;22.70;99.90
10583;DHT22;33679;51.218;6.786;2022-10-17T13:28:05;22.70;99.90
10583;DHT22;33679;51.218;6.786;2022-10-17T13:30:36;22.70;99.90
10583;DHT22;33679;51.218;6.786;2022-10-17T13:33:17;22.70;99.90
10583;DHT22;33679;51.218;6.786;2022-10-17T13:35:47;22.80;99.90
10583;DHT22;33679;51.218;6.786;2022-10-17T13:38:24;22.70;99.90
10583;DHT22;33679;51.218;6.786;2022-10-17T13:40:52;22.70;99.90
10583;DHT22;33679;51.218;6.786;2022-10-17T13:43:21;22.70;99.90
10583;DHT22;33679;51.218;6.786;2022-10-17T13:45:52;22.60;99.90
10583;DHT22;33679;51.218;6.786;2022-10-17T13:48:22;22.60;99.90
10583;DHT22;33679;51.218;6.786;2022-10-17T13:50:54;22.60;99.90
10583;DHT22;33679;51.218;6.786;2022-10-17T13:53:25;22.60;99.90
10583;DHT22;33679;51.218;6.786;2022-10-17T13:55:59;22.70;99.90
10583;DHT22;33679;51.218;6.786;2022-10-17T13:58:30;22.70;99.90
10583;DHT22;33679;51.218;6.786;2022-10-17T14:01:01;22.70;99.90
10583;DHT22;33679;51.218;6.786;2022-10-17T14:03:29;22.70;99.90
10583;DHT22;33679;51.218;6.786;2022-10-17T14:06:12;22.70;99.90
10583;DHT22;33679;51.218;6.786;2022-10-17T14:08:48;22.70;99.90
10583;DHT22;33679;51.218;6.786;2022-10-17T14:11:21;22.70;99.90
10583;DHT22;33679;51.218;6.786;2022-10-17T14:13:51;22.80;99.90
10583;DHT22;33679;51.218;6.786;2022-10-17T14:16:21;22.80;99.90
10583;DHT22;33679;51.218;6.786;2022-10-17T14:18:50;22.80;99.90
10583;DHT22;33679;51.218;6.786;2022-10-17T14:21:23;22.80;99.90
10583;DHT22;33679;51.218;6.786;2022-10-17T14:23:52;22.80;99.90
10583;DHT22;33679;51.218;6.786;2022-10-17T14:26:46;22.90;99.90
10583;DHT22;33679;51.218;6.786;2022-10-17T14:29:20;22.90;99.90
10583;DHT22;33679;51.218;6.786;2022-10-17T14:31:49;22.80;99.90
10583;DHT22;33679;51.218;6.786;2022-10-17T14:34:27;22.80;99.90
10583;DHT22;33679;51.218;6.786;2022-10-17T14:36:56;22.90;99.90
10583;DHT22;33679;51.218;6.786;2022-10-17T14:39:25;22.80;99.90
10583;DHT22;33679;51.218;6.786;2022-10-17T14:41:53;22.90;99.90
10583;DHT22;33679;51.218;6.786;2022-10-17T14:44:23;22.90;99.90
10583;DHT22;33679;51.218;6.786;2022-10-17T14:47:17;22.80;99.90
10583;DHT22;33679;51.218;6.786;2022-10-17T14:49:49;22.80;99.90
10583;DHT22;33679;51.218;6.786;2022-10-17T14:52:28;22.80;99.90
10583;DHT22;33679;51.218;6.786;2022-10-17T14:54:57;22.80;99.90
10583;DHT22;33679;51.218;6.786;2022-10-17T14:57:40;22.80;99.90
10583;DHT22;33679;51.218;6.786;2022-10-17T15:00:12;22.80;99.90
10583;DHT22;33679;51.218;6.786;2022-10-17T15:02:41;22.70;99.90
10583;DHT22;33679;51.218;6.786;2022-10-17T15:05:08;22.70;99.90
10583;DHT22;33679;51.218;6.786;2022-10-17T15:07:35;22.80;99.90
10583;DHT22;33679;51.218;6.786;2022-10-17T15:10:03;22.70;99.90
10583;DHT22;33679;51.218;6.786;2022-10-17T15:12:31;22.80;99.90
10583;DHT22;33679;51.218;6.786;2022-10-17T15:15:01;22.70;99.90
10583;DHT22;33679;51.218;6.786;2022-10-17T15:17:32;22.70;99.90
10583;DHT22;33679;51.218;6.786;2022-10-17T15:20:01;22.80;99.90
10583;DHT22;33679;51.218;6.786;2022-10-17T15:22:28;22.70;99.90
10583;DHT22;33679;51.218;6.786;2022-10-17T15:24:56;22.70;99.90
10583;DHT22;33679;51.218;6.786;2022-10-17T15:27:24;22.60;99.90
10583;DHT22;33679;51.218;6.786;2022-10-17T15:29:52;22.70;99.90
10583;DHT22;33679;51.218;6.786;2022-10-17T15:32:19;22.60;99.90
10583;DHT22;33679;51.218;6.786;2022-10-17T15:34:47;22.60;99.90
10583;DHT22;33679;51.218;6.786;2022-10-17T15:37:19;22.50;99.90
10583;DHT22;33679;51.218;6.786;2022-10-17T15:39:48;22.50;99.90
10583;DHT22;33679;51.218;6.786;2022-10-17T15:42:18;22.50;99.90
10583;DHT22;33679;51.218;6.786;2022-10-17T15:44:46;22.50;99.90
10583;DHT22;33679;51.218;6.786;2022-10-17T15:47:27;22.40;99.90
10583;DHT22;33679;51.218;6.786;2022-10-17T15:49:55;22.40;99.90
10583;DHT22;33679;51.218;6.786;2022-10-17T15:52:28;22.30;99.90
10583;DHT22;33679;51.218;6.786;2022-10-17T15:54:56;22.20;99.90
10583;DHT22;33679;51.218;6.786;2022-10-17T15:57:25;22.20;99.90
10583;DHT22;33679;51.218;6.786;2022-10-17T15:59:54;22.10;99.90
10583;DHT22;33679;51.218;6.786;2022-10-17T16:02:25;22.10;99.90
10583;DHT22;33679;51.218;6.786;2022-10-17T16:04:54;22.00;99.90
10583;DHT22;33679;51.218;6.786;2022-10-17T16:07:21;22.00;99.90
10583;DHT22;33679;51.218;6.786;2022-10-17T16:09:51;22.00;99.90
10583;DHT22;33679;51.218;6.786;2022-10-17T16:12:25;22.00;99.90
10583;DHT22;33679;51.218;6.786;2022-10-17T16:14:55;22.00;99.90
10583;DHT22;33679;51.218;6.786;2022-10-17T16:17:23;22.00;99.90
10583;DHT22;33679;51.218;6.786;2022-10-17T16:19:51;22.00;99.90
10583;DHT22;33679;51.218;6.786;2022-10-17T16:22:28;21.90;99.90
10583;DHT22;33679;51.218;6.786;2022-10-17T16:25:00;21.90;99.90
10583;DHT22;33679;51.218;6.786;2022-10-17T16:27:39;21.90;99.90
10583;DHT22;33679;51.218;6.786;2022-10-17T16:30:07;21.90;99.90
10583;DHT22;33679;51.218;6.786;2022-10-17T16:32:35;21.90;99.90
10583;DHT22;33679;51.218;6.786;2022-10-17T16:35:02;21.90;99.90
10583;DHT22;33679;51.218;6.786;2022-10-17T16:37:32;21.90;99.90
10583;DHT22;33679;51.218;6.786;2022-10-17T16:40:04;22.00;99.90
10583;DHT22;33679;51.218;6.786;2022-10-17T16:42:33;22.10;99.90
10583;DHT22;33679;51.218;6.786;2022-10-17T16:45:05;22.10;99.90
10583;DHT22;33679;51.218;6.786;2022-10-17T16:47:32;22.00;99.90
10583;DHT22;33679;51.218;6.786;2022-10-17T16:50:02;22.00;99.90
10583;DHT22;33679;51.218;6.786;2022-10-17T16:52:38;22.00;99.90
10583;DHT22;33679;51.218;6.786;2022-10-17T16:55:11;22.00;99.90
10583;DHT22;33679;51.218;6.786;2022-10-17T16:57:42;22.00;99.90
10583;DHT22;33679;51.218;6.786;2022-10-17T17:00:13;22.00;99.90
10583;DHT22;33679;51.218;6.786;2022-10-17T17:02:41;22.00;99.90
10583;DHT22;33679;51.218;6.786;2022-10-17T17:05:16;21.90;99.90
10583;DHT22;33679;51.218;6.786;2022-10-17T17:07:47;21.80;99.90
10583;DHT22;33679;51.218;6.786;2022-10-17T17:10:25;21.70;99.90
10583;DHT22;33679;51.218;6.786;2022-10-17T17:12:52;21.70;99.90
10583;DHT22;33679;51.218;6.786;2022-10-17T17:15:19;21.60;99.90
10583;DHT22;33679;51.218;6.786;2022-10-17T17:17:56;21.60;99.90
10583;DHT22;33679;51.218;6.786;2022-10-17T17:20:27;21.60;99.90
10583;DHT22;33679;51.218;6.786;2022-10-17T17:22:54;21.50;99.90
10583;DHT22;33679;51.218;6.786;2022-10-17T17:25:23;21.50;99.90
10583;DHT22;33679;51.218;6.786;2022-10-17T17:27:54;21.50;99.90
10583;DHT22;33679;51.218;6.786;2022-10-17T17:30:24;21.60;99.90
10583;DHT22;33679;51.218;6.786;2022-10-17T17:32:55;21.60;99.90
10583;DHT22;33679;51.218;6.786;2022-10-17T17:35:25;21.60;99.90
10583;DHT22;33679;51.218;6.786;2022-10-17T17:38:00;21.80;99.90
10583;DHT22;33679;51.218;6.786;2022-10-17T17:40:45;21.80;99.90
10583;DHT22;33679;51.218;6.786;2022-10-17T17:43:15;21.80;99.90
10583;DHT22;33679;51.218;6.786;2022-10-17T17:45:46;21.70;99.90
10583;DHT22;33679;51.218;6.786;2022-10-17T17:48:13;21.80;99.90
10583;DHT22;33679;51.218;6.786;2022-10-17T17:50:41;21.80;99.90
10583;DHT22;33679;51.218;6.786;2022-10-17T17:53:11;21.70;99.90
10583;DHT22;33679;51.218;6.786;2022-10-17T17:55:44;21.80;99.90
10583;DHT22;33679;51.218;6.786;2022-10-17T17:58:12;21.90;99.90
10583;DHT22;33679;51.218;6.786;2022-10-17T18:00:41;21.90;99.90
10583;DHT22;33679;51.218;6.786;2022-10-17T18:03:08;21.90;99.90
10583;DHT22;33679;51.218;6.786;2022-10-17T18:05:39;21.90;99.90
10583;DHT22;33679;51.218;6.786;2022-10-17T18:08:09;21.90;99.90
10583;DHT22;33679;51.218;6.786;2022-10-17T18:10:45;21.90;99.90
10583;DHT22;33679;51.218;6.786;2022-10-17T18:13:13;21.80;99.90
10583;DHT22;33679;51.218;6.786;2022-10-17T18:15:44;21.90;99.90
10583;DHT22;33679;51.218;6.786;2022-10-17T18:18:13;21.80;99.90
10583;DHT22;33679;51.218;6.786;2022-10-17T18:20:41;21.70;99.90
10583;DHT22;33679;51.218;6.786;2022-10-17T18:23:10;21.60;99.90
10583;DHT22;33679;51.218;6.786;2022-10-17T18:25:41;21.50;99.90
10583;DHT22;33679;51.218;6.786;2022-10-17T18:28:09;21.40;99.90
10583;DHT22;33679;51.218;6.786;2022-10-17T18:30:37;21.40;99.90
10583;DHT22;33679;51.218;6.786;2022-10-17T18:33:07;21.30;99.90
10583;DHT22;33679;51.218;6.786;2022-10-17T18:35:42;21.30;99.90
10583;DHT22;33679;51.218;6.786;2022-10-17T18:38:10;21.20;99.90
10583;DHT22;33679;51.218;6.786;2022-10-17T18:40:39;21.20;99.90
10583;DHT22;33679;51.218;6.786;2022-10-17T18:46:14;21.00;99.90
10583;DHT22;33679;51.218;6.786;2022-10-17T18:48:44;21.00;99.90
10583;DHT22;33679;51.218;6.786;2022-10-17T18:51:17;21.00;99.90
10583;DHT22;33679;51.218;6.786;2022-10-17T18:53:51;21.00;99.90
10583;DHT22;33679;51.218;6.786;2022-10-17T18:56:27;21.00;99.90
10583;DHT22;33679;51.218;6.786;2022-10-17T18:59:00;21.00;99.90
10583;DHT22;33679;51.218;6.786;2022-10-17T19:02:37;21.00;99.90
10583;DHT22;33679;51.218;6.786;2022-10-17T19:05:07;21.00;99.90
10583;DHT22;33679;51.218;6.786;2022-10-17T19:07:37;21.00;99.90